Time;durP1;ratioP1;P1;durP2;ratioP2;P2;SDS_P1;SDS_P2;PMS_P1;PMS_P2;Temp;Humidity;BMP_temperature;BMP_pressure;BME280_temperature;BME280_humidity;BME280_pressure;Samples;Min_cycle;Max_cycle;Signal;HPM_P1;HPM_P2
2022/06/09 00:00:28;;;;;;;5.60;2.47;;;;;;;20.59;56.05;97882.47;5089068;28;20561;-90
2022/06/09 00:03:00;;;;;;;5.15;3.03;;;;;;;20.58;56.92;97879.88;5089547;28;20516;-89
2022/06/09 00:05:27;;;;;;;4.40;2.70;;;;;;;20.60;57.19;97883.31;5085780;28;20098;-91
2022/06/09 00:07:55;;;;;;;5.93;2.75;;;;;;;20.49;56.80;97870.66;5088720;28;20056;-89
2022/06/09 00:10:24;;;;;;;;;;;;;;;20.56;56.58;97882.69;5089746;28;20051;-89
2022/06/09 00:12:50;;;;;;;5.88;2.70;;;;;;;20.55;55.77;97872.00;5087047;28;19963;-89
2022/06/09 00:15:16;;;;;;;8.93;2.83;;;;;;;20.58;55.76;97872.66;5088967;28;20043;-89
2022/06/09 00:17:42;;;;;;;4.95;3.00;;;;;;;20.62;56.13;97857.88;5088304;28;20036;-89
2022/06/09 00:20:10;;;;;;;8.52;3.17;;;;;;;20.56;56.84;97863.78;5088679;28;20054;-90
2022/06/09 00:22:36;;;;;;;5.33;3.00;;;;;;;20.57;57.29;97860.13;5089239;28;20196;-89
2022/06/09 00:25:03;;;;;;;7.60;2.88;;;;;;;20.44;56.74;97840.47;5089558;28;20040;-88
2022/06/09 00:27:30;;;;;;;8.85;2.70;;;;;;;20.55;56.58;97867.47;5088127;28;20036;-90
2022/06/09 00:29:56;;;;;;;6.22;2.72;;;;;;;20.47;56.95;97851.03;5088946;28;20048;-90
2022/06/09 00:32:22;;;;;;;7.40;2.63;;;;;;;20.45;56.35;97856.56;5089232;28;20039;-89
2022/06/09 00:34:47;;;;;;;7.18;2.88;;;;;;;20.40;56.89;97857.91;5089593;28;20043;-90
2022/06/09 00:37:13;;;;;;;5.07;2.90;;;;;;;20.45;57.83;97869.19;5089285;28;20531;-89
2022/06/09 00:39:39;;;;;;;6.40;2.90;;;;;;;20.31;58.23;97871.19;5089003;28;20036;-90
2022/06/09 00:42:05;;;;;;;6.57;2.85;;;;;;;20.29;58.99;97908.25;5089160;28;20032;-89
2022/06/09 00:44:32;;;;;;;12.38;3.97;;;;;;;20.20;61.37;97910.84;5089797;28;20040;-94
2022/06/09 00:47:03;;;;;;;17.20;3.72;;;;;;;19.83;66.13;97882.22;5091990;28;20033;-91
2022/06/09 00:49:33;;;;;;;11.88;3.78;;;;;;;18.91;71.64;97885.75;5092450;28;20063;-89
2022/06/09 00:52:01;;;;;;;15.05;3.53;;;;;;;18.46;75.11;97867.50;5089841;28;20048;-90
2022/06/09 00:54:30;;;;;;;9.27;3.70;;;;;;;17.75;74.98;97877.91;5090624;28;20033;-92
2022/06/09 00:57:02;;;;;;;8.02;3.03;;;;;;;17.70;78.83;97863.09;5089672;28;20417;-91
2022/06/09 00:59:29;;;;;;;6.72;3.28;;;;;;;17.45;79.72;97852.19;5088425;28;20120;-91
2022/06/09 01:01:59;;;;;;;10.88;3.17;;;;;;;17.39;83.08;97866.09;5090383;28;20041;-89
2022/06/09 01:04:26;;;;;;;9.73;3.10;;;;;;;17.14;85.04;97856.16;5076904;28;20125;-92
2022/06/09 01:06:57;;;;;;;8.60;3.60;;;;;;;17.12;86.94;97867.97;5075359;28;20872;-90
2022/06/09 01:09:25;;;;;;;8.63;2.78;;;;;;;17.15;88.59;97847.13;5076591;28;20950;-90
2022/06/09 01:11:53;;;;;;;8.60;3.30;;;;;;;17.23;87.03;97863.59;5075272;28;20044;-88
2022/06/09 01:14:21;;;;;;;10.63;3.28;;;;;;;17.29;86.83;97865.00;5075641;28;20079;-89
2022/06/09 01:16:59;;;;;;;6.25;2.90;;;;;;;17.25;85.18;97861.66;5075237;28;20037;-89
2022/06/09 01:19:54;;;;;;;7.10;2.42;;;;;;;17.25;82.65;97875.09;5073260;28;20051;-89
2022/06/09 01:22:38;;;;;;;10.27;3.13;;;;;;;17.29;83.10;97869.53;5033010;28;20518;-89
2022/06/09 01:25:49;;;;;;;8.55;2.90;;;;;;;17.28;81.17;97870.47;5034425;28;20152;-90
2022/06/09 01:28:51;;;;;;;11.43;2.90;;;;;;;17.28;83.90;97865.94;5033654;28;20372;-89
2022/06/09 01:31:25;;;;;;;4.90;2.70;;;;;;;17.32;83.67;97863.91;5032878;28;20037;-90
2022/06/09 01:33:58;;;;;;;10.77;2.97;;;;;;;17.33;84.76;97866.50;5033125;28;20049;-89
2022/06/09 01:36:31;;;;;;;6.60;3.00;;;;;;;17.37;87.03;97876.09;5030640;28;20383;-91
2022/06/09 01:38:57;;;;;;;7.38;2.95;;;;;;;17.42;86.75;97882.00;5033297;28;20049;-91
2022/06/09 01:41:25;;;;;;;8.35;3.08;;;;;;;17.41;86.82;97874.91;5032584;28;20033;-90
2022/06/09 01:43:52;;;;;;;8.50;2.92;;;;;;;17.42;89.52;97871.25;5032475;28;20048;-90
2022/06/09 01:46:25;;;;;;;13.55;3.28;;;;;;;17.45;91.33;97875.53;5033149;28;20041;-91
2022/06/09 01:48:55;;;;;;;9.40;3.60;;;;;;;17.41;92.83;97868.66;5033058;28;20515;-90
2022/06/09 01:51:25;;;;;;;8.90;3.72;;;;;;;17.33;93.11;97857.59;5032603;28;20042;-90
2022/06/09 01:53:55;;;;;;;9.55;3.67;;;;;;;17.40;90.39;97872.31;5032488;28;20316;-90
2022/06/09 01:56:27;;;;;;;7.97;3.42;;;;;;;17.06;89.76;97860.34;5032517;28;20112;-90
2022/06/09 01:58:59;;;;;;;12.15;3.80;;;;;;;17.28;92.97;97881.22;5051043;28;20563;-90
2022/06/09 02:01:31;;;;;;;12.68;4.18;;;;;;;17.20;90.89;97868.31;5075376;28;20036;-91
2022/06/09 02:04:01;;;;;;;8.85;3.63;;;;;;;17.10;92.39;97865.38;5074495;28;20066;-91
2022/06/09 02:06:28;;;;;;;6.50;3.72;;;;;;;16.96;94.04;97857.44;5073224;28;20045;-90
2022/06/09 02:08:54;;;;;;;10.45;4.70;;;;;;;16.91;93.81;97865.78;5074348;28;20037;-91
2022/06/09 02:11:21;;;;;;;12.68;4.00;;;;;;;16.83;95.11;97863.63;5075107;28;20123;-90
2022/06/09 02:13:49;;;;;;;7.13;3.75;;;;;;;16.76;93.79;97861.41;5075189;28;20041;-91
2022/06/09 02:16:18;;;;;;;11.55;4.20;;;;;;;16.62;95.29;97857.81;5074099;28;20390;-91
2022/06/09 02:18:48;;;;;;;10.38;3.97;;;;;;;16.80;95.15;97879.91;5071018;28;20447;-90
2022/06/09 02:21:19;;;;;;;8.77;3.83;;;;;;;16.82;94.56;97879.81;5074597;28;20474;-89
2022/06/09 02:23:46;;;;;;;7.53;4.22;;;;;;;16.78;94.43;97867.53;5073006;28;20064;-92
2022/06/09 02:26:11;;;;;;;10.50;4.05;;;;;;;16.79;93.70;97861.22;5074368;28;20040;-92
2022/06/09 02:28:37;;;;;;;7.85;3.60;;;;;;;16.77;93.06;97860.44;5073931;28;20051;-90
2022/06/09 02:31:03;;;;;;;12.60;3.60;;;;;;;16.77;93.79;97852.41;5074384;28;20110;-91
2022/06/09 02:33:29;;;;;;;8.75;3.67;;;;;;;16.86;93.19;97867.91;5074010;28;20510;-90
2022/06/09 02:35:56;;;;;;;7.38;3.22;;;;;;;16.83;93.29;97862.75;5073694;28;20032;-93
2022/06/09 02:38:22;;;;;;;8.25;3.60;;;;;;;16.81;88.74;97853.94;5073644;28;20033;-90
2022/06/09 02:40:48;;;;;;;6.95;3.20;;;;;;;16.84;89.62;97845.66;5073676;28;20041;-91
2022/06/09 02:43:14;;;;;;;7.78;4.18;;;;;;;16.88;89.58;97833.75;5073750;28;20048;-90
2022/06/09 02:45:41;;;;;;;11.23;3.50;;;;;;;16.69;87.33;97833.25;5073828;28;20076;-89
2022/06/09 02:48:07;;;;;;;10.07;3.53;;;;;;;16.88;89.46;97863.31;5073534;28;20047;-92
2022/06/09 02:50:34;;;;;;;12.65;3.88;;;;;;;16.83;91.74;97857.38;5074267;28;20043;-90
2022/06/09 02:53:02;;;;;;;8.55;4.07;;;;;;;16.80;92.87;97836.09;5074059;28;20052;-90
2022/06/09 02:55:29;;;;;;;8.52;3.80;;;;;;;16.81;91.68;97841.38;5073894;28;20044;-90
2022/06/09 02:57:55;;;;;;;8.48;4.80;;;;;;;16.61;93.10;97820.31;5073560;28;20036;-91
2022/06/09 03:00:21;;;;;;;11.88;4.13;;;;;;;16.72;93.04;97839.28;5073930;28;20032;-89
2022/06/09 03:02:52;;;;;;;13.13;3.53;;;;;;;16.60;93.41;97810.56;5073853;28;20527;-90
2022/06/09 03:05:18;;;;;;;8.93;3.47;;;;;;;16.60;94.90;97803.38;5073716;28;20052;-92
2022/06/09 03:07:44;;;;;;;8.93;4.22;;;;;;;16.67;93.57;97827.97;5073924;28;20067;-90
2022/06/09 03:10:11;;;;;;;10.73;4.35;;;;;;;16.41;92.42;97819.81;5073592;28;20121;-90
2022/06/09 03:12:36;;;;;;;11.43;4.18;;;;;;;16.49;95.23;97831.91;5073619;28;20068;-89
2022/06/09 03:15:07;;;;;;;10.07;4.00;;;;;;;16.54;95.86;97832.44;5072721;28;20413;-91
2022/06/09 03:17:33;;;;;;;13.05;4.07;;;;;;;16.62;95.41;97809.50;5073740;28;20063;-89
2022/06/09 03:19:59;;;;;;;10.38;3.90;;;;;;;16.62;95.30;97819.38;5072775;28;20135;-92
2022/06/09 03:22:25;;;;;;;9.45;4.28;;;;;;;16.69;95.14;97820.69;5073942;28;20520;-92
2022/06/09 03:24:51;;;;;;;10.00;4.57;;;;;;;16.63;96.18;97807.66;5073855;28;20401;-91
2022/06/09 03:27:18;;;;;;;14.23;4.95;;;;;;;16.59;97.42;97788.25;5073550;28;20493;-90
2022/06/09 03:29:44;;;;;;;10.93;4.97;;;;;;;16.54;95.95;97793.03;5073722;28;20040;-91
2022/06/09 03:32:10;;;;;;;12.52;5.30;;;;;;;16.54;97.77;97800.22;5073483;28;20037;-90
2022/06/09 03:34:36;;;;;;;13.07;5.10;;;;;;;16.48;98.28;97788.09;5073609;28;20064;-91
2022/06/09 03:37:02;;;;;;;13.23;5.53;;;;;;;16.53;99.16;97807.44;5072555;28;20379;-90
2022/06/09 03:39:28;;;;;;;11.52;5.60;;;;;;;16.46;99.42;97794.50;5073695;28;20044;-90
2022/06/09 03:41:54;;;;;;;13.65;4.45;;;;;;;16.63;98.59;97819.28;5073822;28;20064;-90
2022/06/09 03:44:21;;;;;;;9.45;4.45;;;;;;;16.54;97.75;97803.78;5073894;28;20657;-91
2022/06/09 03:46:47;;;;;;;11.85;4.70;;;;;;;16.45;97.05;97815.13;5073910;28;20041;-90
2022/06/09 03:49:15;;;;;;;10.82;5.38;;;;;;;16.37;98.65;97838.91;5074768;28;20366;-90
2022/06/09 03:51:40;;;;;;;10.23;4.93;;;;;;;16.39;99.30;97853.09;5073341;28;20057;-91
2022/06/09 03:54:07;;;;;;;11.32;4.68;;;;;;;16.33;98.19;97837.38;5073415;28;20037;-90
2022/06/09 03:56:33;;;;;;;10.73;4.97;;;;;;;16.46;97.85;97851.75;5072959;28;20048;-89
2022/06/09 03:58:59;;;;;;;11.82;4.18;;;;;;;16.50;97.80;97844.34;5073097;28;20036;-91
2022/06/09 04:01:26;;;;;;;9.18;4.03;;;;;;;16.45;95.51;97838.41;5073598;28;20098;-90
2022/06/09 04:03:52;;;;;;;12.70;4.30;;;;;;;16.53;93.21;97845.00;5073667;28;20037;-90
2022/06/09 04:06:20;;;;;;;12.07;3.90;;;;;;;16.50;92.11;97834.47;5073742;28;20037;-92
2022/06/09 04:08:48;;;;;;;11.67;3.93;;;;;;;16.62;92.86;97828.28;5073583;28;20098;-92
2022/06/09 04:11:14;;;;;;;10.10;4.07;;;;;;;16.66;92.99;97825.41;5071483;28;20119;-91
2022/06/09 04:13:40;;;;;;;9.60;4.00;;;;;;;16.49;94.13;97797.00;5073497;28;20725;-90
2022/06/09 04:16:14;;;;;;;11.00;3.55;;;;;;;16.59;95.01;97819.56;5075257;28;20048;-90
2022/06/09 04:18:41;;;;;;;7.85;3.72;;;;;;;16.52;95.33;97823.63;5072843;28;20056;-91
2022/06/09 04:21:07;;;;;;;9.00;4.13;;;;;;;16.36;96.40;97813.91;5073845;28;20566;-90
2022/06/09 04:23:33;;;;;;;9.77;4.18;;;;;;;16.36;98.06;97810.38;5073637;28;20068;-90
2022/06/09 04:25:59;;;;;;;9.63;3.65;;;;;;;16.36;96.71;97794.28;5073003;28;20398;-90
2022/06/09 04:28:25;;;;;;;8.18;3.45;;;;;;;16.60;96.45;97803.38;5072956;28;20078;-89
2022/06/09 04:30:51;;;;;;;14.10;4.32;;;;;;;16.63;97.45;97788.88;5072958;28;20064;-90
2022/06/09 04:33:16;;;;;;;12.45;4.50;;;;;;;16.70;98.59;97787.53;5072635;28;20064;-89
2022/06/09 04:35:44;;;;;;;10.38;4.38;;;;;;;16.88;98.24;97796.16;5073216;28;20050;-90
2022/06/09 04:38:11;;;;;;;8.50;4.57;;;;;;;16.87;98.52;97798.94;5073961;28;20040;-90
2022/06/09 04:40:39;;;;;;;9.57;4.30;;;;;;;16.69;97.55;97801.03;5076058;28;20056;-91
2022/06/09 04:43:07;;;;;;;7.82;4.70;;;;;;;16.49;98.27;97797.00;5077225;28;20044;-91
2022/06/09 04:45:33;;;;;;;9.65;4.43;;;;;;;16.44;99.85;97816.09;5076377;28;20044;-90
2022/06/09 04:47:58;;;;;;;10.95;4.95;;;;;;;16.27;99.45;97792.22;5075399;28;20075;-93
2022/06/09 04:50:25;;;;;;;8.43;4.57;;;;;;;16.40;99.43;97787.75;5075235;28;20435;-92
2022/06/09 04:52:52;;;;;;;13.20;5.10;;;;;;;16.36;99.52;97752.19;5077698;28;20041;-95
2022/06/09 04:55:18;;;;;;;12.93;5.45;;;;;;;16.52;98.42;97756.53;5078447;28;20485;-92
2022/06/09 04:57:44;;;;;;;10.65;4.63;;;;;;;16.40;99.24;97801.16;5077254;28;20043;-92
2022/06/09 05:00:12;;;;;;;13.23;5.13;;;;;;;16.29;100.00;97809.91;5077121;28;20494;-91
2022/06/09 05:02:38;;;;;;;9.90;5.20;;;;;;;16.11;100.00;97795.00;5076467;28;20040;-94
2022/06/09 05:05:05;;;;;;;11.05;4.65;;;;;;;16.16;100.00;97811.69;5076508;28;20050;-91
2022/06/09 05:07:31;;;;;;;9.70;5.18;;;;;;;16.10;100.00;97807.56;5077112;28;20068;-92
2022/06/09 05:09:58;;;;;;;14.43;5.03;;;;;;;16.16;100.00;97791.09;5077207;28;20052;-90
2022/06/09 05:12:24;;;;;;;20.30;4.97;;;;;;;16.19;100.00;97788.19;5076283;28;20056;-93
2022/06/09 05:14:52;;;;;;;14.05;5.25;;;;;;;16.26;100.00;97794.00;5076437;28;20046;-92
2022/06/09 05:17:18;;;;;;;9.65;5.03;;;;;;;16.33;100.00;97773.88;5076351;28;20040;-92
2022/06/09 05:19:43;;;;;;;11.80;4.80;;;;;;;16.78;100.00;97801.25;5077683;28;20493;-94
2022/06/09 05:22:09;;;;;;;11.48;5.22;;;;;;;17.01;100.00;97791.66;5076765;28;20041;-93
2022/06/09 05:24:35;;;;;;;8.50;3.88;;;;;;;17.20;96.01;97787.72;5076932;28;20067;-93
2022/06/09 05:27:03;;;;;;;10.07;4.28;;;;;;;17.35;96.13;97781.28;5076262;28;20052;-92
2022/06/09 05:29:28;;;;;;;8.10;4.35;;;;;;;17.46;93.54;97767.06;5076280;28;20037;-92
2022/06/09 05:31:54;;;;;;;9.45;4.10;;;;;;;17.58;91.78;97774.25;5075974;28;20036;-93
2022/06/09 05:34:20;;;;;;;8.10;3.90;;;;;;;17.77;92.71;97778.31;5075764;28;20127;-92
2022/06/09 05:36:46;;;;;;;11.73;4.35;;;;;;;18.19;94.59;97779.72;5075645;28;20120;-89
2022/06/09 05:45:06;;;;;;;9.68;4.25;;;;;;;18.37;88.27;97779.34;5049189;27;20393;-92
2022/06/09 05:47:32;;;;;;;6.60;3.70;;;;;;;18.59;87.64;97781.28;5049564;28;20974;-91
2022/06/09 05:49:58;;;;;;;8.23;3.70;;;;;;;18.99;83.85;97772.88;5050467;28;20068;-92
2022/06/09 05:52:26;;;;;;;8.68;3.92;;;;;;;19.33;83.22;97754.06;5050790;28;20033;-91
2022/06/09 05:54:53;;;;;;;5.72;3.10;;;;;;;19.45;79.78;97767.44;5051184;28;20037;-89
2022/06/09 05:57:20;;;;;;;9.35;3.58;;;;;;;19.38;78.90;97759.94;5051130;28;20037;-91
2022/06/09 05:59:46;;;;;;;8.05;3.47;;;;;;;19.09;79.39;97761.25;5053199;28;20465;-93
2022/06/09 06:02:15;;;;;;;7.03;3.25;;;;;;;18.73;82.41;97747.91;5050555;28;20034;-91
2022/06/09 06:04:41;;;;;;;9.43;3.35;;;;;;;19.01;81.31;97758.28;5049271;28;20517;-89
2022/06/09 06:07:07;;;;;;;8.23;3.85;;;;;;;19.13;82.31;97737.63;5047746;28;20045;-92
2022/06/09 06:09:32;;;;;;;7.53;3.50;;;;;;;19.34;81.84;97753.94;5049480;28;20136;-91
2022/06/09 06:11:58;;;;;;;8.27;3.65;;;;;;;19.50;84.93;97765.22;5049476;28;20091;-91
2022/06/09 06:14:24;;;;;;;7.95;3.13;;;;;;;19.63;81.22;97773.19;5050334;28;20646;-92
2022/06/09 06:16:50;;;;;;;7.82;3.58;;;;;;;19.50;81.27;97783.25;5048974;28;20704;-91
2022/06/09 06:19:19;;;;;;;6.43;3.50;;;;;;;19.07;84.02;97787.47;5050485;28;20056;-92
2022/06/09 06:21:45;;;;;;;;;;;;;;;18.88;84.46;97803.31;5049675;28;20045;-91
2022/06/09 06:24:12;;;;;;;8.45;3.90;;;;;;;19.23;81.77;97788.97;5049169;28;19921;-90
2022/06/09 06:26:38;;;;;;;7.75;3.65;;;;;;;19.40;80.43;97783.09;5047925;28;20461;-91
2022/06/09 06:29:05;;;;;;;7.30;4.10;;;;;;;19.78;79.03;97791.84;5048669;28;20041;-91
2022/06/09 06:31:31;;;;;;;10.02;3.45;;;;;;;20.24;77.02;97778.19;5048817;28;20499;-91
2022/06/09 06:33:58;;;;;;;8.18;3.38;;;;;;;20.73;75.68;97792.16;5049207;28;20044;-91
2022/06/09 06:36:25;;;;;;;6.45;3.38;;;;;;;21.03;73.32;97795.94;5048474;28;20072;-92
2022/06/09 06:38:51;;;;;;;7.88;3.60;;;;;;;21.46;73.82;97793.13;5048850;28;20057;-92
2022/06/09 06:41:17;;;;;;;9.48;3.30;;;;;;;21.76;67.75;97783.31;5048765;28;20052;-91
2022/06/09 06:43:44;;;;;;;7.97;3.38;;;;;;;21.71;68.63;97763.94;5047622;28;20091;-93
2022/06/09 06:46:09;;;;;;;7.35;3.33;;;;;;;21.60;69.38;97782.94;5047664;28;20033;-93
2022/06/09 06:48:35;;;;;;;7.72;3.20;;;;;;;21.49;69.33;97779.34;5048938;28;20040;-93
2022/06/09 06:51:01;;;;;;;10.35;4.00;;;;;;;21.61;69.58;97779.25;5048453;28;20033;-91
2022/06/09 06:53:28;;;;;;;7.72;3.47;;;;;;;21.31;70.15;97754.72;5049967;28;20037;-92
2022/06/09 06:55:54;;;;;;;7.35;3.60;;;;;;;20.92;70.55;97778.81;5037673;28;20041;-92
2022/06/09 06:58:20;;;;;;;7.00;3.33;;;;;;;20.59;72.18;97778.97;5034832;28;20421;-92
2022/06/09 07:00:46;;;;;;;10.75;4.35;;;;;;;20.52;72.38;97781.31;5034731;28;20038;-91
2022/06/09 07:03:12;;;;;;;7.18;3.60;;;;;;;20.45;73.99;97791.75;5034968;28;20132;-92
2022/06/09 07:05:38;;;;;;;8.35;4.10;;;;;;;19.97;77.72;97797.47;5038452;28;20033;-91
2022/06/09 07:08:04;;;;;;;11.35;4.95;;;;;;;19.86;80.03;97813.69;5033548;28;20052;-91
2022/06/09 07:10:32;;;;;;;9.40;4.57;;;;;;;19.51;82.90;97806.53;5032904;28;20044;-93
2022/06/09 07:12:58;;;;;;;8.32;4.07;;;;;;;19.60;82.69;97795.00;5035223;28;20422;-91
2022/06/09 07:15:24;;;;;;;8.80;5.30;;;;;;;19.44;82.80;97771.09;5035540;28;20045;-91
2022/06/09 07:17:50;;;;;;;7.07;3.95;;;;;;;19.90;81.53;97782.78;5030880;28;20128;-91
2022/06/09 07:20:16;;;;;;;7.13;3.75;;;;;;;19.92;80.59;97785.34;5032990;28;20133;-89
2022/06/09 07:22:42;;;;;;;11.60;3.97;;;;;;;20.24;76.78;97767.38;5033646;28;20045;-93
2022/06/09 07:25:09;;;;;;;8.18;3.33;;;;;;;20.68;73.18;97770.09;5034612;28;20046;-91
2022/06/09 07:27:37;;;;;;;6.22;3.50;;;;;;;21.26;72.81;97766.94;5033247;28;20344;-90
2022/06/09 07:30:03;;;;;;;8.27;3.40;;;;;;;21.53;69.19;97766.41;5033150;28;20060;-93
2022/06/09 07:32:29;;;;;;;5.90;3.40;;;;;;;21.34;71.15;97762.59;5031848;28;20144;-91
2022/06/09 07:34:55;;;;;;;9.00;3.90;;;;;;;21.79;71.18;97761.38;5033878;28;20124;-90
2022/06/09 07:37:21;;;;;;;8.88;3.67;;;;;;;22.29;68.70;97741.59;5034748;28;20034;-92
2022/06/09 07:39:47;;;;;;;11.85;3.92;;;;;;;23.11;65.66;97726.78;5033553;28;20042;-92
2022/06/09 07:42:13;;;;;;;12.07;4.20;;;;;;;23.44;63.43;97706.41;5034215;28;20495;-92
2022/06/09 07:44:40;;;;;;;5.63;3.53;;;;;;;23.29;61.52;97714.19;5031291;28;20054;-92
2022/06/09 07:47:06;;;;;;;12.90;9.18;;;;;;;23.55;60.66;97717.09;5035679;28;20072;-93
2022/06/09 07:49:31;;;;;;;7.75;5.13;;;;;;;23.53;59.67;97712.78;5034949;28;20061;-91
2022/06/09 07:51:57;;;;;;;15.88;8.32;;;;;;;23.49;59.67;97714.97;5035285;28;20052;-91
2022/06/09 07:54:34;;;;;;;9.20;3.83;;;;;;;23.36;59.85;97701.72;5035339;28;20034;-94
2022/06/09 07:57:03;;;;;;;8.55;3.35;;;;;;;22.64;62.42;97737.50;5036512;28;20042;-93
2022/06/09 07:59:29;;;;;;;8.63;2.92;;;;;;;22.73;60.60;97734.78;5036930;28;20056;-91
2022/06/09 08:01:56;;;;;;;7.88;2.90;;;;;;;23.10;61.79;97725.94;5035707;28;20042;-93
2022/06/09 08:04:22;;;;;;;6.00;3.50;;;;;;;23.89;60.00;97715.66;5032027;28;20038;-93
2022/06/09 08:06:48;;;;;;;7.35;3.00;;;;;;;24.59;57.94;97724.94;5033972;28;20041;-93
2022/06/09 08:09:13;;;;;;;5.45;2.60;;;;;;;25.02;54.53;97712.38;5031661;28;20041;-93
2022/06/09 08:11:39;;;;;;;7.53;3.00;;;;;;;25.51;52.33;97678.38;5036589;28;20060;-91
2022/06/09 08:14:06;;;;;;;5.53;2.75;;;;;;;25.90;52.53;97691.50;5036103;28;20348;-92
2022/06/09 08:16:33;;;;;;;5.47;2.63;;;;;;;26.16;49.35;97685.97;5031549;28;20076;-94
2022/06/09 08:19:01;;;;;;;5.75;2.40;;;;;;;24.30;51.97;97673.50;5040034;28;20041;-93
2022/06/09 08:21:27;;;;;;;5.22;2.50;;;;;;;24.23;52.45;97663.44;5035062;28;20398;-94
2022/06/09 08:23:54;;;;;;;5.75;3.03;;;;;;;24.67;53.60;97688.81;5035850;28;20626;-92
2022/06/09 08:26:20;;;;;;;7.03;2.72;;;;;;;24.01;54.23;97673.72;5035976;28;20505;-93
2022/06/09 08:28:46;;;;;;;8.93;3.00;;;;;;;23.96;55.71;97695.91;5036728;28;20514;-92
2022/06/09 08:31:12;;;;;;;7.57;3.40;;;;;;;23.98;55.87;97690.31;5036967;28;20049;-92
2022/06/09 08:33:38;;;;;;;13.88;3.17;;;;;;;23.97;56.52;97675.03;5031310;28;20086;-94
2022/06/09 08:36:06;;;;;;;6.15;2.97;;;;;;;23.58;56.61;97691.50;5035401;28;20041;-92
2022/06/09 08:38:32;;;;;;;6.53;3.00;;;;;;;22.95;57.75;97703.81;5035280;28;20064;-92
2022/06/09 08:41:08;;;;;;;7.72;2.72;;;;;;;22.22;60.86;97708.81;5034873;28;20042;-92
2022/06/09 08:43:40;;;;;;;7.10;2.90;;;;;;;22.01;62.12;97710.75;5034109;28;20045;-94
2022/06/09 08:46:18;;;;;;;6.88;2.88;;;;;;;21.72;63.74;97687.16;5035355;28;20057;-92
2022/06/09 08:48:45;;;;;;;8.43;2.90;;;;;;;21.66;64.27;97717.47;5034817;28;20394;-91
2022/06/09 08:51:17;;;;;;;7.82;3.47;;;;;;;21.34;65.00;97713.06;5031194;28;20045;-90
2022/06/09 08:53:47;;;;;;;10.23;3.60;;;;;;;21.17;68.69;97708.28;5032576;28;20047;-92
2022/06/09 08:56:18;;;;;;;6.47;3.28;;;;;;;21.03;72.34;97714.88;5035597;28;20033;-93
2022/06/09 08:58:48;;;;;;;6.63;3.40;;;;;;;20.24;72.54;97712.53;5036140;28;20033;-92
2022/06/09 09:01:22;;;;;;;9.32;3.30;;;;;;;19.69;76.83;97708.00;5033144;28;20048;-93
2022/06/09 09:03:51;;;;;;;5.50;3.17;;;;;;;19.59;76.37;97716.94;5039688;28;20093;-94
2022/06/09 09:06:25;;;;;;;6.65;3.00;;;;;;;19.43;75.80;97720.88;5030298;28;20088;-94
2022/06/09 09:08:55;;;;;;;5.30;2.67;;;;;;;19.46;74.97;97722.47;5042327;28;20088;-94
2022/06/09 09:11:40;;;;;;;5.28;2.72;;;;;;;19.40;75.81;97734.56;5038639;28;20044;-94
2022/06/09 09:14:13;;;;;;;6.18;3.10;;;;;;;19.28;77.82;97711.31;5038401;28;20068;-93
2022/06/09 09:16:46;;;;;;;6.85;3.03;;;;;;;19.64;78.24;97702.09;5039734;28;20117;-93
2022/06/09 09:19:26;;;;;;;7.07;3.30;;;;;;;19.99;78.84;97714.56;5047868;28;20064;-93
2022/06/09 09:22:04;;;;;;;7.72;3.15;;;;;;;20.25;76.51;97711.53;5037297;28;20096;-93
2022/06/09 09:24:44;;;;;;;7.80;3.03;;;;;;;20.40;77.25;97722.91;5035605;28;20042;-93
2022/06/09 09:27:21;;;;;;;6.53;3.08;;;;;;;20.79;76.74;97723.25;5035316;28;20487;-91
2022/06/09 09:29:54;;;;;;;4.93;3.10;;;;;;;21.11;74.75;97721.31;5034283;28;20513;-93
2022/06/09 09:32:23;;;;;;;7.30;3.13;;;;;;;21.38;72.08;97725.28;5033673;28;20391;-93
2022/06/09 09:34:51;;;;;;;7.05;2.90;;;;;;;21.56;71.76;97721.97;5032560;28;20041;-92
2022/06/09 09:37:24;;;;;;;9.90;3.10;;;;;;;21.92;70.50;97734.09;5033209;28;20049;-91
2022/06/09 09:39:55;;;;;;;6.85;2.97;;;;;;;22.04;70.58;97737.53;5033620;28;20091;-91
2022/06/09 09:42:24;;;;;;;5.20;2.83;;;;;;;22.12;71.14;97716.03;5033247;28;20041;-91
2022/06/09 09:45:05;;;;;;;6.65;3.00;;;;;;;22.00;69.49;97736.97;5032708;28;20045;-91
2022/06/09 09:47:40;;;;;;;8.23;3.13;;;;;;;22.23;70.33;97743.03;5031749;28;20114;-90
2022/06/09 09:50:18;;;;;;;7.32;2.70;;;;;;;22.42;68.13;97730.50;5033400;28;20045;-91
2022/06/09 09:52:53;;;;;;;7.95;3.20;;;;;;;21.98;70.05;97733.53;5033116;28;20037;-91
2022/06/09 09:55:26;;;;;;;4.90;2.78;;;;;;;21.80;71.16;97735.22;5034323;28;20038;-92
2022/06/09 09:58:16;;;;;;;5.57;2.80;;;;;;;21.79;72.06;97712.69;5031282;28;20064;-92
2022/06/09 10:00:43;;;;;;;6.80;3.10;;;;;;;22.02;69.06;97718.72;5032862;28;20132;-90
2022/06/09 10:09:26;;;;;;;4.75;2.90;;;;;;;23.60;64.71;97702.22;5152152;27;20110;-90
2022/06/09 10:11:55;;;;;;;6.72;3.30;;;;;;;24.37;63.58;97693.59;5148648;27;20437;-92
2022/06/09 10:14:37;;;;;;;5.93;2.92;;;;;;;24.53;57.59;97698.38;5151485;27;20114;-91
2022/06/09 10:17:05;;;;;;;7.45;3.05;;;;;;;23.81;59.60;97700.13;5151400;27;20043;-93
2022/06/09 10:19:33;;;;;;;7.03;3.22;;;;;;;23.30;60.87;97693.31;5151937;27;20396;-93
2022/06/09 10:22:02;;;;;;;13.20;4.45;;;;;;;23.00;62.58;97691.66;5152865;27;20031;-91
2022/06/09 10:24:42;;;;;;;7.03;2.95;;;;;;;23.16;62.00;97675.66;5151200;27;20047;-94
2022/06/09 10:27:13;;;;;;;5.50;3.10;;;;;;;22.66;63.97;97682.19;5151705;27;20056;-92
2022/06/09 10:29:48;;;;;;;5.68;3.35;;;;;;;22.69;66.17;97692.72;5152115;27;20122;-92
2022/06/09 10:32:20;;;;;;;7.13;3.17;;;;;;;23.27;63.90;97672.78;5150450;27;20051;-89
2022/06/09 10:34:52;;;;;;;6.75;3.33;;;;;;;23.51;62.25;97671.41;5146488;27;20043;-93
2022/06/09 10:37:25;;;;;;;5.72;3.10;;;;;;;23.73;61.77;97692.72;5152388;27;20034;-92
2022/06/09 10:40:07;;;;;;;7.38;3.40;;;;;;;24.12;62.75;97653.63;5150070;27;20103;-94
2022/06/09 10:42:37;;;;;;;7.20;3.40;;;;;;;24.39;63.02;97661.69;5151838;27;20084;-92
2022/06/09 10:45:21;;;;;;;6.93;3.38;;;;;;;23.62;63.00;97676.63;5150518;27;20050;-89
2022/06/09 10:57:09;;;;;;;9.35;3.40;;;;;;;24.00;59.64;97644.84;5091528;27;20366;-91
2022/06/09 10:59:40;;;;;;;7.40;3.70;;;;;;;24.30;60.22;97642.78;5089886;28;20048;-91
2022/06/09 11:02:13;;;;;;;7.47;3.65;;;;;;;24.48;59.46;97657.22;5088956;28;20040;-92
2022/06/09 11:04:39;;;;;;;5.95;3.42;;;;;;;24.56;58.32;97641.00;5090872;28;20060;-92
2022/06/09 11:07:37;;;;;;;6.13;3.08;;;;;;;24.16;59.52;97636.88;5091139;28;20053;-92
2022/06/09 11:10:15;;;;;;;4.28;2.70;;;;;;;23.94;54.79;97623.72;5089183;28;20045;-92
2022/06/09 11:12:55;;;;;;;4.95;2.72;;;;;;;24.53;51.98;97633.16;5088463;28;20028;-93
2022/06/09 11:15:32;;;;;;;4.97;2.88;;;;;;;24.58;51.77;97614.50;5089325;28;20032;-92
2022/06/09 11:18:19;;;;;;;4.28;2.95;;;;;;;24.99;50.60;97606.63;5087132;28;20051;-91
2022/06/09 11:20:54;;;;;;;4.50;2.40;;;;;;;24.49;47.92;97588.28;5088958;28;20036;-93
2022/06/09 11:23:33;;;;;;;5.13;2.30;;;;;;;24.79;49.11;97586.97;5089664;28;20111;-93
2022/06/09 11:26:09;;;;;;;4.90;2.60;;;;;;;24.61;46.80;97580.72;5089263;28;20064;-92
2022/06/09 11:28:50;;;;;;;4.22;2.38;;;;;;;24.59;49.37;97590.88;5089894;28;20513;-90
2022/06/09 11:31:40;;;;;;;4.80;2.45;;;;;;;24.62;50.55;97598.75;5088322;28;20047;-90
2022/06/09 11:34:23;;;;;;;3.50;2.03;;;;;;;24.48;49.10;97608.31;5088676;28;20044;-89
2022/06/09 11:36:59;;;;;;;4.53;2.53;;;;;;;24.08;51.82;97611.50;5087786;28;20115;-90
2022/06/09 11:39:45;;;;;;;4.32;2.30;;;;;;;23.35;51.35;97618.63;5089471;28;20576;-90
2022/06/09 11:42:20;;;;;;;5.55;1.92;;;;;;;22.07;51.85;97624.41;5089226;28;20036;-92
2022/06/09 11:44:51;;;;;;;4.32;2.00;;;;;;;21.23;56.37;97657.22;5090878;28;20494;-91
2022/06/09 11:47:19;;;;;;;8.13;2.53;;;;;;;19.47;67.50;97663.03;5091261;28;20048;-92
2022/06/09 11:49:46;;;;;;;;;;;;;;;19.23;65.84;97673.06;5093577;28;20070;-93
2022/06/09 11:52:16;;;;;;;2.33;1.70;;;;;;;18.74;65.16;97652.69;5090272;28;19943;-94
2022/06/09 11:54:57;;;;;;;2.33;1.85;;;;;;;18.87;67.85;97666.94;5092980;28;20161;-93
2022/06/09 11:57:27;;;;;;;4.80;1.85;;;;;;;18.74;65.04;97655.38;5092309;28;20489;-92
2022/06/09 12:00:00;;;;;;;3.00;1.80;;;;;;;18.81;66.52;97662.03;5088063;28;20048;-90
2022/06/09 12:02:48;;;;;;;2.53;1.90;;;;;;;18.99;66.00;97655.19;5084615;28;20040;-91